Time;durP1;ratioP1;P1;durP2;ratioP2;P2;SDS_P1;SDS_P2;PMS_P1;PMS_P2;Temp;Humidity;BMP_temperature;BMP_pressure;BME280_temperature;BME280_humidity;BME280_pressure;Samples;Min_cycle;Max_cycle;Signal;HPM_P1;HPM_P2
2022/08/11 00:01:44;;;;;;;3.83;3.40;;;;;;;27.69;49.27;99414.00;5073665;28;20180;-75
2022/08/11 00:04:12;;;;;;;4.20;4.00;;;;;;;27.71;48.94;99417.22;5073862;28;20185;-75
2022/08/11 00:06:41;;;;;;;4.90;4.50;;;;;;;27.77;48.75;99407.81;5073600;28;20250;-76
2022/08/11 00:09:10;;;;;;;4.60;4.40;;;;;;;27.74;48.95;99411.16;5073500;28;20226;-77
2022/08/11 00:11:40;;;;;;;4.70;4.47;;;;;;;27.61;49.75;99417.47;5073593;28;20290;-74
2022/08/11 00:14:15;;;;;;;4.97;4.57;;;;;;;27.40;50.57;99411.66;5073409;28;20199;-76
2022/08/11 00:16:45;;;;;;;4.40;4.03;;;;;;;27.25;51.31;99405.75;5073707;28;20237;-76
2022/08/11 00:19:19;;;;;;;8.50;5.07;;;;;;;27.11;51.41;99402.22;5073793;28;20249;-73
2022/08/11 00:21:48;;;;;;;4.33;4.13;;;;;;;26.72;53.00;99404.69;5073653;28;20184;-74
2022/08/11 00:24:16;;;;;;;5.43;5.00;;;;;;;25.99;55.29;99401.13;5073224;28;20196;-74
2022/08/11 00:26:47;;;;;;;4.33;4.13;;;;;;;26.04;55.80;99404.56;5073142;28;20253;-75
2022/08/11 00:29:14;;;;;;;7.67;4.87;;;;;;;26.41;54.50;99401.69;5073208;28;20184;-76
2022/08/11 00:31:45;;;;;;;4.40;4.10;;;;;;;26.16;55.45;99401.34;5073025;28;20242;-75
2022/08/11 00:34:13;;;;;;;4.73;4.20;;;;;;;26.18;55.71;99407.31;5072626;28;20196;-76
2022/08/11 00:36:48;;;;;;;4.43;4.10;;;;;;;26.45;54.36;99404.66;5073099;28;20196;-76
2022/08/11 00:39:17;;;;;;;5.63;5.40;;;;;;;26.22;55.50;99405.63;5072646;28;20196;-74
2022/08/11 00:41:55;;;;;;;5.17;4.83;;;;;;;26.21;55.93;99406.72;5072950;28;20192;-75
2022/08/11 00:44:41;;;;;;;6.10;5.50;;;;;;;25.73;57.70;99402.63;5072803;28;20248;-75
2022/08/11 00:47:29;;;;;;;5.50;5.10;;;;;;;25.66;58.64;99413.06;5073232;28;20238;-75
2022/08/11 00:50:07;;;;;;;5.67;5.20;;;;;;;25.57;59.08;99414.84;5072507;28;20655;-74
2022/08/11 00:52:58;;;;;;;5.50;5.20;;;;;;;25.78;58.35;99413.41;5072343;28;20704;-74
2022/08/11 00:56:16;;;;;;;5.20;4.90;;;;;;;25.83;58.45;99413.31;5072528;28;20334;-75
2022/08/11 00:59:15;;;;;;;6.50;5.90;;;;;;;25.85;58.25;99411.91;5072339;28;20235;-75
2022/08/11 01:01:56;;;;;;;5.63;5.23;;;;;;;25.84;58.72;99414.97;5072612;28;20195;-74
2022/08/11 01:05:04;;;;;;;5.33;5.03;;;;;;;25.88;59.00;99405.09;5072261;28;20253;-74
2022/08/11 01:08:30;;;;;;;6.10;5.50;;;;;;;25.92;58.82;99404.19;5072296;28;20184;-74
2022/08/11 01:11:23;;;;;;;5.53;5.23;;;;;;;26.03;57.81;99402.94;5072703;28;20200;-75
2022/08/11 01:14:20;;;;;;;5.57;5.17;;;;;;;26.09;57.56;99395.50;5072651;28;20257;-75
2022/08/11 01:17:14;;;;;;;5.40;5.07;;;;;;;26.04;58.07;99401.84;5072163;28;20192;-75
2022/08/11 01:20:09;;;;;;;5.20;4.80;;;;;;;26.29;56.63;99400.59;5071681;28;20265;-75
2022/08/11 01:23:06;;;;;;;5.73;5.23;;;;;;;26.30;56.98;99396.75;5071827;28;20241;-75
2022/08/11 01:25:54;;;;;;;5.03;4.73;;;;;;;26.32;56.64;99392.63;5072534;28;20192;-74
2022/08/11 01:28:56;;;;;;;4.50;4.10;;;;;;;26.31;56.42;99393.72;5071796;28;20651;-75
2022/08/11 01:32:01;;;;;;;4.57;4.37;;;;;;;26.26;56.27;99393.84;5040882;28;20640;-77
2022/08/11 01:35:25;;;;;;;5.53;5.13;;;;;;;26.12;56.20;99397.59;5069397;28;20192;-77
2022/08/11 01:38:21;;;;;;;5.20;4.80;;;;;;;25.99;56.15;99392.94;5071722;28;20184;-75
2022/08/11 01:44:36;;;;;;;5.10;4.90;;;;;;;25.86;57.73;99390.97;5071521;28;20257;-73
2022/08/11 01:44:46;;;;;;;4.50;4.30;;;;;;;25.87;56.85;99393.38;5071553;28;20569;-72
2022/08/11 01:50:16;;;;;;;5.57;4.70;;;;;;;25.46;57.78;99391.59;5071809;28;20222;-73
2022/08/11 01:53:09;;;;;;;4.47;4.20;;;;;;;25.79;57.32;99395.97;5071770;28;20648;-73
2022/08/11 01:55:46;;;;;;;4.63;4.33;;;;;;;25.90;56.73;99394.72;5069423;28;20196;-73
2022/08/11 01:58:20;;;;;;;9.20;4.37;;;;;;;26.03;56.30;99400.22;5071749;28;20269;-75
2022/08/11 02:00:58;;;;;;;5.13;4.83;;;;;;;26.03;55.06;99391.25;5071493;28;20258;-75
2022/08/11 02:03:35;;;;;;;4.73;4.40;;;;;;;26.02;55.28;99384.19;5071044;28;20237;-74
2022/08/11 02:06:53;;;;;;;4.20;4.00;;;;;;;26.20;55.39;99388.75;5071754;28;20198;-76
2022/08/11 02:09:20;;;;;;;5.03;4.50;;;;;;;26.29;54.86;99384.25;5071202;28;20199;-74
2022/08/11 02:11:48;;;;;;;4.17;3.97;;;;;;;26.44;54.41;99386.66;5071533;28;20613;-76
2022/08/11 02:14:24;;;;;;;5.03;4.60;;;;;;;26.53;53.61;99384.84;5071128;28;20207;-75
2022/08/11 02:17:10;;;;;;;4.57;4.07;;;;;;;26.60;53.47;99390.75;5071087;28;20183;-75
2022/08/11 02:25:37;;;;;;;4.13;3.93;;;;;;;26.86;52.38;99397.31;5071170;28;20628;-75
2022/08/11 02:28:10;;;;;;;4.93;4.53;;;;;;;26.93;52.14;99394.97;5071735;28;20250;-76
2022/08/11 02:33:21;;;;;;;5.93;4.23;;;;;;;26.98;51.73;99392.13;5071461;28;20269;-76
2022/08/11 02:33:42;;;;;;;4.53;4.17;;;;;;;26.98;51.76;99382.03;5074690;28;20253;-75
2022/08/11 02:36:14;;;;;;;5.10;4.13;;;;;;;27.08;51.53;99389.19;5074874;28;20192;-75
2022/08/11 02:38:48;;;;;;;4.10;3.80;;;;;;;27.12;51.53;99392.94;5075026;28;20192;-75
2022/08/11 02:44:27;;;;;;;4.47;4.13;;;;;;;27.13;51.35;99397.25;5075127;28;20754;-76
2022/08/11 02:47:03;;;;;;;4.63;4.23;;;;;;;27.04;51.34;99382.72;5075337;28;20233;-75
2022/08/11 02:49:53;;;;;;;6.07;4.57;;;;;;;27.00;51.92;99392.63;5075517;28;20195;-75
2022/08/11 02:52:30;;;;;;;4.40;4.03;;;;;;;26.98;52.08;99392.13;5075275;28;20191;-74
2022/08/11 02:55:17;;;;;;;4.07;3.77;;;;;;;26.95;51.21;99371.72;5075549;28;20184;-77
2022/08/11 03:00:49;;;;;;;4.17;3.90;;;;;;;27.12;51.15;99395.66;5075539;28;20577;-76
2022/08/11 03:03:25;;;;;;;5.10;4.03;;;;;;;27.24;50.44;99399.47;5074708;28;20241;-77
2022/08/11 03:06:04;;;;;;;4.60;4.20;;;;;;;27.22;50.71;99403.63;5074862;28;20271;-76
2022/08/11 03:08:56;;;;;;;4.40;4.20;;;;;;;27.24;50.36;99402.22;5075180;28;20198;-75
2022/08/11 03:17:25;;;;;;;4.00;3.70;;;;;;;26.99;50.73;99399.22;5074699;28;20230;-75
2022/08/11 03:20:05;;;;;;;4.37;4.17;;;;;;;26.97;50.70;99395.97;5074341;28;20180;-74
2022/08/11 03:22:38;;;;;;;4.30;4.00;;;;;;;26.95;50.79;99403.66;5074757;28;20188;-73
2022/08/11 03:25:12;;;;;;;4.30;4.00;;;;;;;26.86;51.02;99408.22;5074633;28;20271;-75
2022/08/11 03:27:52;;;;;;;4.60;4.20;;;;;;;26.87;51.63;99404.38;5074031;28;20725;-75
2022/08/11 03:30:26;;;;;;;4.67;4.20;;;;;;;26.86;51.30;99400.03;5074418;28;20616;-75
2022/08/11 03:36:05;;;;;;;4.80;4.40;;;;;;;26.88;51.33;99400.53;5074014;28;20651;-76
2022/08/11 03:38:45;;;;;;;4.67;4.30;;;;;;;26.78;52.09;99398.03;5073895;28;20206;-76
2022/08/11 03:44:20;;;;;;;5.10;4.70;;;;;;;26.53;53.00;99395.75;5072808;28;20342;-76
2022/08/11 03:47:07;;;;;;;4.27;4.03;;;;;;;26.44;53.32;99401.09;5074268;28;20250;-74
2022/08/11 03:49:44;;;;;;;9.60;4.47;;;;;;;26.34;53.36;99393.09;5073795;28;20641;-75
2022/08/11 03:52:21;;;;;;;4.73;4.53;;;;;;;26.23;54.06;99394.41;5074246;28;20192;-75
2022/08/11 03:55:01;;;;;;;5.67;4.77;;;;;;;26.24;53.99;99397.94;5073761;28;20270;-73
2022/08/11 03:58:04;;;;;;;4.97;4.57;;;;;;;26.45;53.57;99399.19;5073366;28;20275;-74
2022/08/11 04:00:57;;;;;;;5.93;4.97;;;;;;;26.56;52.55;99400.59;5015839;28;20238;-74
2022/08/11 04:04:16;;;;;;;6.20;4.73;;;;;;;26.91;52.25;99411.63;5073262;28;20257;-74
2022/08/11 04:07:06;;;;;;;4.77;4.40;;;;;;;27.31;50.53;99408.06;5017166;28;20199;-75
2022/08/11 04:10:10;;;;;;;8.70;5.13;;;;;;;27.72;49.34;99413.41;5073101;28;20184;-75
2022/08/11 04:13:07;;;;;;;5.43;5.13;;;;;;;28.14;48.31;99421.09;5073073;28;20241;-75
2022/08/11 04:16:01;;;;;;;4.90;4.50;;;;;;;28.64;46.60;99417.88;5073637;28;20222;-76
2022/08/11 04:18:55;;;;;;;4.90;4.47;;;;;;;29.14;44.87;99423.81;5027795;28;20614;-76
2022/08/11 04:21:51;;;;;;;9.43;5.07;;;;;;;29.29;44.51;99423.38;5073200;28;20212;-75
2022/08/11 04:24:38;;;;;;;4.80;3.80;;;;;;;29.06;44.98;99424.59;5072578;28;20188;-76
2022/08/11 04:27:27;;;;;;;5.80;5.30;;;;;;;28.94;45.18;99419.72;5073426;28;20199;-75
2022/08/11 04:30:04;;;;;;;4.40;4.10;;;;;;;28.82;45.30;99422.25;5072878;28;20185;-76
2022/08/11 04:32:59;;;;;;;6.00;4.63;;;;;;;28.77;45.82;99424.31;5072906;28;20184;-78
2022/08/11 04:35:42;;;;;;;6.87;4.40;;;;;;;28.72;46.19;99438.97;5060561;28;20574;-78
2022/08/11 04:38:44;;;;;;;6.97;4.23;;;;;;;28.65;45.93;99426.84;5072438;28;20184;-77
2022/08/11 04:41:31;;;;;;;4.17;3.87;;;;;;;28.65;46.30;99427.66;5072165;28;20285;-79
2022/08/11 04:44:26;;;;;;;7.33;4.50;;;;;;;28.56;46.29;99424.09;5072924;28;20716;-78
2022/08/11 05:01:39;;;;;;;4.70;4.20;;;;;;;28.60;46.18;99427.00;5072922;28;20187;-77
2022/08/11 05:03:01;;;;;;;4.50;4.10;;;;;;;29.85;43.53;99422.44;5041094;28;20249;-75
2022/08/11 05:05:49;;;;;;;4.47;3.80;;;;;;;29.98;43.01;99422.28;5072020;28;20647;-75
2022/08/11 05:08:51;;;;;;;4.63;4.10;;;;;;;30.18;42.31;99424.38;5071653;28;20569;-76
2022/08/11 05:11:44;;;;;;;4.60;4.40;;;;;;;30.11;42.17;99423.19;5071973;28;20203;-76
2022/08/11 05:37:09;;;;;;;9.90;4.70;;;;;;;28.52;48.14;99422.28;5092287;28;20194;-70
2022/08/11 05:56:33;;;;;;;7.87;5.10;;;;;;;27.19;52.89;99424.13;5091585;28;20642;-69
2022/08/11 05:59:01;;;;;;;6.00;5.40;;;;;;;27.11;53.81;99411.19;5091428;28;20229;-69
2022/08/11 06:01:31;;;;;;;8.73;5.03;;;;;;;27.30;53.91;99417.38;5091026;28;20735;-69
2022/08/11 06:04:14;;;;;;;7.87;4.87;;;;;;;27.53;52.33;99415.47;5091298;28;20191;-70
2022/08/11 06:06:49;;;;;;;6.37;5.17;;;;;;;27.76;51.52;99420.66;5091008;28;20198;-70
2022/08/11 06:09:22;;;;;;;14.27;5.00;;;;;;;28.21;50.06;99425.00;5091602;28;20270;-69
2022/08/11 06:11:49;;;;;;;5.07;4.60;;;;;;;29.02;48.26;99423.63;5091102;28;20189;-71
2022/08/11 06:14:18;;;;;;;5.20;4.90;;;;;;;29.58;45.72;99422.75;5090566;28;20191;-68
2022/08/11 06:16:48;;;;;;;4.53;4.13;;;;;;;30.25;43.93;99432.88;5091131;28;20244;-72
2022/08/11 06:19:16;;;;;;;5.50;4.40;;;;;;;30.60;42.58;99433.56;5090813;28;20559;-72
2022/08/11 06:21:46;;;;;;;7.97;4.80;;;;;;;31.09;41.67;99428.22;5090510;28;20215;-71
2022/08/11 06:24:15;;;;;;;4.90;4.17;;;;;;;31.60;40.23;99430.63;5091092;28;20268;-72
2022/08/11 06:26:48;;;;;;;4.33;4.03;;;;;;;31.68;40.00;99429.75;5091129;28;20289;-71
2022/08/11 06:29:18;;;;;;;3.80;3.60;;;;;;;32.25;38.79;99430.69;5091258;28;20183;-70
2022/08/11 06:31:53;;;;;;;4.10;3.90;;;;;;;32.61;38.30;99425.28;5090697;28;20200;-72
2022/08/11 06:34:34;;;;;;;7.20;4.73;;;;;;;33.03;37.61;99429.44;5090882;28;20182;-71
2022/08/11 06:37:14;;;;;;;4.20;3.90;;;;;;;33.22;35.82;99421.41;5090790;28;20182;-71
2022/08/11 06:39:47;;;;;;;4.47;4.17;;;;;;;32.79;36.96;99423.91;5090222;28;20658;-70
2022/08/11 06:42:26;;;;;;;3.80;3.60;;;;;;;33.15;37.11;99429.44;5090645;28;20211;-71
2022/08/11 06:45:03;;;;;;;4.20;3.90;;;;;;;33.50;35.71;99429.75;5090939;28;20191;-70
2022/08/11 06:47:32;;;;;;;4.67;4.13;;;;;;;34.03;35.26;99425.78;5090797;28;20187;-71
2022/08/11 06:52:46;;;;;;;4.13;3.80;;;;;;;34.40;34.29;99427.22;5090474;28;20688;-70
2022/08/11 07:00:26;;;;;;;4.90;4.10;;;;;;;34.71;33.95;99427.25;5090661;28;20203;-69
2022/08/11 07:01:01;;;;;;;3.88;3.67;;;;;;;34.63;33.29;99428.22;5090823;28;20206;-70
2022/08/11 07:03:35;;;;;;;4.05;3.80;;;;;;;34.70;33.13;99428.41;5090366;28;20642;-69
2022/08/11 07:06:14;;;;;;;6.40;4.18;;;;;;;34.82;33.08;99428.34;5090289;28;20245;-69
2022/08/11 07:28:57;;;;;;;5.32;3.78;;;;;;;35.12;32.56;99432.22;5094135;28;20218;-68
2022/08/11 07:31:30;;;;;;;4.63;4.25;;;;;;;35.02;32.52;99438.31;5093895;28;20203;-68
2022/08/11 07:34:09;;;;;;;4.43;4.05;;;;;;;35.43;32.57;99432.97;5094193;28;20249;-69
2022/08/11 07:36:40;;;;;;;7.93;7.28;;;;;;;35.59;32.40;99435.69;5093820;28;20195;-69
2022/08/11 07:39:20;;;;;;;11.20;8.63;;;;;;;36.07;31.67;99435.94;5093870;28;20245;-68
2022/08/11 07:41:48;;;;;;;6.50;4.15;;;;;;;36.28;31.01;99439.16;5093701;28;20209;-68
2022/08/11 07:44:16;;;;;;;4.88;4.28;;;;;;;35.88;31.39;99437.94;5093917;28;20191;-69
2022/08/11 07:52:26;;;;;;;4.95;4.22;;;;;;;35.44;32.13;99422.75;5094051;28;20202;-67
2022/08/11 07:54:55;;;;;;;9.25;4.85;;;;;;;35.32;32.57;99428.38;5093711;28;20191;-68
2022/08/11 08:19:24;;;;;;;3.85;3.55;;;;;;;35.49;31.56;99403.09;5093112;28;20182;-68
2022/08/11 08:21:52;;;;;;;6.20;3.75;;;;;;;35.73;31.22;99405.59;5093256;28;20276;-68
2022/08/11 08:24:21;;;;;;;7.43;4.47;;;;;;;35.94;31.27;99404.09;5093081;28;20550;-68
2022/08/11 08:26:58;;;;;;;4.78;4.47;;;;;;;36.05;31.32;99402.31;5093281;28;20203;-68
2022/08/11 08:32:23;;;;;;;4.43;3.90;;;;;;;36.65;29.86;99401.44;5030557;28;20209;-68
2022/08/11 08:34:53;;;;;;;7.03;4.30;;;;;;;36.88;29.98;99404.22;5078149;28;20187;-65
2022/08/11 08:37:22;;;;;;;3.75;3.60;;;;;;;36.80;29.44;99399.75;5093105;28;20194;-67
2022/08/11 08:39:50;;;;;;;3.90;3.70;;;;;;;36.74;29.12;99398.44;5092804;28;20657;-67
2022/08/11 08:42:21;;;;;;;5.95;3.97;;;;;;;36.35;30.67;99394.19;5092831;28;20272;-68
2022/08/11 08:44:54;;;;;;;6.35;3.47;;;;;;;36.25;30.40;99397.59;5092651;28;20191;-68
2022/08/11 08:47:22;;;;;;;4.75;4.00;;;;;;;36.59;30.61;99399.38;5092836;28;20183;-68
2022/08/11 08:49:52;;;;;;;3.97;3.67;;;;;;;36.74;29.19;99392.91;5092585;28;20664;-68
2022/08/11 08:52:23;;;;;;;4.07;3.75;;;;;;;36.97;29.03;99390.91;5092954;28;20658;-67
2022/08/11 08:54:55;;;;;;;4.18;3.80;;;;;;;37.12;29.36;99390.72;5092517;28;20692;-66
2022/08/11 08:57:23;;;;;;;4.25;3.88;;;;;;;37.14;29.20;99380.13;5092530;28;20244;-67
2022/08/11 08:59:52;;;;;;;4.22;4.03;;;;;;;36.87;29.54;99397.09;5092493;28;20227;-66
2022/08/11 09:02:23;;;;;;;3.95;3.65;;;;;;;36.54;29.94;99388.59;5092699;28;20223;-67
2022/08/11 09:04:51;;;;;;;6.20;4.63;;;;;;;36.81;29.16;99381.94;5092541;28;20589;-67
2022/08/11 09:07:20;;;;;;;5.68;4.13;;;;;;;36.91;29.94;99378.56;5092611;28;20187;-67
2022/08/11 09:09:48;;;;;;;3.97;3.72;;;;;;;37.03;29.36;99372.78;5092505;28;20191;-67
2022/08/11 09:12:18;;;;;;;4.15;3.85;;;;;;;37.23;28.77;99377.03;5092120;28;20721;-68
2022/08/11 09:15:02;;;;;;;6.72;3.85;;;;;;;36.98;29.06;99371.13;5092043;28;20248;-68
2022/08/11 09:17:35;;;;;;;21.48;4.80;;;;;;;36.96;28.77;99373.47;5092253;28;20211;-67
2022/08/11 09:20:06;;;;;;;4.43;4.03;;;;;;;37.06;28.28;99369.25;5092292;28;20191;-68
2022/08/11 09:28:03;;;;;;;4.50;4.13;;;;;;;37.25;27.69;99369.19;5092207;28;20248;-69
2022/08/11 09:30:31;;;;;;;5.28;3.88;;;;;;;37.00;27.52;99362.47;5092463;28;20195;-69
2022/08/11 09:33:01;;;;;;;7.30;3.67;;;;;;;37.07;28.01;99357.03;5091970;28;20253;-64
2022/08/11 09:35:31;;;;;;;4.28;3.92;;;;;;;36.24;28.95;99351.69;5087854;28;20579;-63
2022/08/11 09:40:46;;;;;;;3.83;3.38;;;;;;;35.81;29.74;99333.47;5092042;28;20190;-65
2022/08/11 09:46:02;;;;;;;6.22;3.80;;;;;;;35.82;29.83;99334.28;5068570;28;20202;-66
2022/08/11 09:48:32;;;;;;;4.70;3.50;;;;;;;35.83;30.17;99327.59;5068147;28;20199;-63
2022/08/11 09:51:01;;;;;;;8.80;4.18;;;;;;;35.65;30.45;99329.19;5068517;28;20908;-67
2022/08/11 09:53:33;;;;;;;7.28;3.55;;;;;;;35.47;29.58;99328.03;5066666;28;20257;-68
2022/08/11 09:58:12;;;;;;;4.07;3.80;;;;;;;35.56;28.53;99325.88;5068285;28;20241;-69
2022/08/11 09:58:49;;;;;;;4.75;3.42;;;;;;;35.73;28.61;99323.44;5069123;28;20768;-69
2022/08/11 10:01:26;;;;;;;4.60;3.72;;;;;;;35.97;28.22;99328.66;5069427;28;20563;-69
2022/08/11 10:03:58;;;;;;;3.20;3.05;;;;;;;35.96;28.32;99331.78;5065733;28;20274;-68
2022/08/11 10:09:12;;;;;;;6.85;3.70;;;;;;;36.10;28.48;99318.22;5065505;28;20179;-70
2022/08/11 10:11:41;;;;;;;10.75;3.72;;;;;;;36.27;27.62;99337.13;5066858;28;20192;-70
2022/08/11 10:16:56;;;;;;;4.43;3.75;;;;;;;35.77;28.39;99327.09;5068067;28;20298;-69
2022/08/11 10:19:24;;;;;;;3.30;3.13;;;;;;;36.08;28.39;99321.34;5068418;28;20249;-70
2022/08/11 10:27:19;;;;;;;3.63;3.50;;;;;;;36.41;27.81;99318.78;5069975;28;20642;-67
2022/08/11 10:35:20;;;;;;;3.65;3.45;;;;;;;36.90;26.71;99316.00;5070143;28;20202;-64
2022/08/11 10:37:48;;;;;;;4.22;3.53;;;;;;;36.97;26.96;99310.56;5067663;28;20249;-64
2022/08/11 10:40:17;;;;;;;5.13;3.47;;;;;;;36.66;26.72;99308.13;5074456;28;20755;-64
2022/08/11 10:48:21;;;;;;;4.45;3.88;;;;;;;36.55;27.58;99301.59;5089537;28;20183;-65
2022/08/11 10:59:08;;;;;;;4.95;4.00;;;;;;;36.11;27.38;99283.84;5096283;28;20234;-65
2022/08/11 11:01:40;;;;;;;4.25;4.00;;;;;;;35.83;27.84;99292.47;5095537;28;20282;-64
2022/08/11 11:04:10;;;;;;;4.05;3.75;;;;;;;35.89;27.70;99276.38;5095844;28;20183;-65
2022/08/11 11:06:49;;;;;;;4.07;3.78;;;;;;;36.07;27.98;99286.56;5095384;28;20191;-66
2022/08/11 11:09:19;;;;;;;4.50;3.90;;;;;;;35.88;28.44;99283.06;5095445;28;20650;-65
2022/08/11 11:20:17;;;;;;;4.45;3.30;;;;;;;35.90;28.03;99269.66;5096156;28;20182;-65
2022/08/11 11:22:51;;;;;;;4.60;3.40;;;;;;;36.03;27.25;99268.31;5095555;28;20276;-64
2022/08/11 11:25:30;;;;;;;5.93;3.65;;;;;;;35.32;28.05;99260.63;5095731;28;20215;-64
2022/08/11 11:28:18;;;;;;;3.42;3.33;;;;;;;35.30;28.57;99262.16;5095350;28;20256;-65
2022/08/11 11:30:57;;;;;;;3.85;3.65;;;;;;;35.47;28.03;99256.19;5095058;28;20183;-65
2022/08/11 11:33:40;;;;;;;4.78;3.50;;;;;;;35.48;27.75;99246.75;5094964;28;20191;-64
2022/08/11 11:36:15;;;;;;;3.42;3.22;;;;;;;35.49;27.41;99253.88;5095138;28;20650;-64
2022/08/11 11:38:42;;;;;;;3.47;3.17;;;;;;;35.41;27.59;99243.84;5093121;28;20191;-64
2022/08/11 11:41:25;;;;;;;3.28;2.97;;;;;;;35.33;27.62;99247.63;5092564;28;20712;-64
2022/08/11 11:43:54;;;;;;;3.67;3.38;;;;;;;34.82;27.62;99240.63;5091536;28;20682;-65
2022/08/11 11:46:21;;;;;;;5.03;3.42;;;;;;;34.86;27.77;99236.75;5090707;28;20282;-67
2022/08/11 11:48:50;;;;;;;3.05;2.90;;;;;;;34.72;27.18;99235.63;5089849;28;20191;-66
2022/08/11 11:51:17;;;;;;;2.97;2.67;;;;;;;34.83;26.78;99231.19;5092722;28;20268;-66
2022/08/11 11:53:46;;;;;;;2.70;2.60;;;;;;;34.88;27.25;99234.44;5093381;28;20383;-66
2022/08/11 11:56:15;;;;;;;2.80;2.70;;;;;;;34.82;26.87;99252.44;5095058;28;20219;-70
2022/08/11 12:01:27;;;;;;;3.33;3.10;;;;;;;34.89;26.41;99230.53;5094954;28;20293;-68
2022/08/11 12:03:57;;;;;;;3.15;3.05;;;;;;;34.96;26.67;99225.16;5094474;28;20227;-67
2022/08/11 12:06:26;;;;;;;3.13;2.92;;;;;;;34.94;26.70;99221.16;5094118;28;20195;-67
2022/08/11 12:08:55;;;;;;;2.60;2.50;;;;;;;34.65;26.26;99218.91;5094232;28;20229;-67
2022/08/11 12:14:10;;;;;;;3.17;3.05;;;;;;;34.62;26.73;99209.38;5092363;28;20181;-68
2022/08/11 12:16:40;;;;;;;3.40;3.20;;;;;;;34.74;27.37;99214.00;5090794;28;20191;-71
2022/08/11 12:19:11;;;;;;;2.85;2.65;;;;;;;34.47;26.57;99206.69;5087675;28;20681;-68
2022/08/11 12:27:19;;;;;;;2.90;2.70;;;;;;;34.72;25.92;99202.50;5088040;28;20183;-69
2022/08/11 12:27:22;;;;;;;3.67;3.45;;;;;;;34.83;27.33;99207.09;5089555;28;20249;-68
2022/08/11 12:29:51;;;;;;;5.03;3.10;;;;;;;34.73;27.54;99193.06;5090217;28;20639;-71
2022/08/11 12:32:20;;;;;;;4.70;3.75;;;;;;;34.70;27.69;99183.53;5090106;28;20639;-68
2022/08/11 12:34:48;;;;;;;2.97;2.78;;;;;;;34.63;27.86;99199.16;5092648;28;20207;-73
2022/08/11 12:37:22;;;;;;;2.70;2.50;;;;;;;34.62;26.97;99194.81;5086206;28;20670;-71
2022/08/11 12:45:27;;;;;;;2.67;2.58;;;;;;;34.76;26.70;99200.63;5090673;28;20183;-71
2022/08/11 12:53:41;;;;;;;2.70;2.60;;;;;;;34.38;27.27;99192.28;5088645;28;20183;-72
2022/08/11 13:07:04;;;;;;;3.00;2.80;;;;;;;34.12;27.15;99194.81;5008554;28;20205;-73
2022/08/11 13:09:31;;;;;;;3.20;3.00;;;;;;;34.21;27.23;99187.16;5009105;28;20193;-72
2022/08/11 13:14:43;;;;;;;2.83;2.63;;;;;;;34.05;27.93;99178.09;5070061;28;20179;-75
2022/08/11 13:17:23;;;;;;;2.72;2.63;;;;;;;33.98;28.57;99173.22;5069537;28;20204;-74
2022/08/11 13:19:52;;;;;;;3.35;3.10;;;;;;;33.92;27.91;99185.66;5069552;28;20190;-76
2022/08/11 13:22:23;;;;;;;2.70;2.60;;;;;;;33.94;28.03;99182.53;5070633;28;20196;-72
2022/08/11 13:24:54;;;;;;;2.50;2.40;;;;;;;34.01;28.04;99182.72;5070369;28;20621;-73
2022/08/11 13:27:21;;;;;;;2.47;2.35;;;;;;;33.90;27.99;99176.94;5071622;28;20212;-73
2022/08/11 13:29:51;;;;;;;3.35;3.00;;;;;;;33.94;27.79;99177.03;5070280;28;20258;-74
2022/08/11 13:32:20;;;;;;;2.63;2.47;;;;;;;33.98;27.81;99177.91;5070301;28;20188;-74
2022/08/11 13:34:47;;;;;;;4.03;2.83;;;;;;;34.01;27.86;99171.69;5071311;28;20192;-73
2022/08/11 13:37:15;;;;;;;4.07;2.80;;;;;;;34.06;27.83;99174.16;5071237;28;20191;-72
2022/08/11 13:39:45;;;;;;;3.03;2.88;;;;;;;34.09;27.79;99173.47;5071118;28;20254;-72
2022/08/11 13:42:19;;;;;;;3.00;2.90;;;;;;;34.06;28.44;99168.66;5071502;28;20188;-72
2022/08/11 13:44:47;;;;;;;3.13;2.88;;;;;;;33.94;28.58;99160.50;5068525;28;20637;-74
2022/08/11 13:47:15;;;;;;;6.25;2.90;;;;;;;33.97;28.91;99160.56;5066646;28;20754;-74
2022/08/11 13:49:44;;;;;;;3.60;3.25;;;;;;;33.89;28.79;99152.50;5066602;28;20196;-73
2022/08/11 13:52:14;;;;;;;3.97;3.00;;;;;;;33.87;28.92;99147.34;5069406;28;20640;-73
2022/08/11 13:54:43;;;;;;;3.22;3.13;;;;;;;33.80;28.63;99157.38;5069179;28;20637;-72
2022/08/11 13:57:14;;;;;;;3.15;2.88;;;;;;;33.67;28.81;99161.38;5069634;28;20195;-73
2022/08/11 13:59:41;;;;;;;3.72;3.00;;;;;;;33.59;28.68;99159.59;5070876;28;20570;-73
2022/08/11 14:02:14;;;;;;;3.50;3.25;;;;;;;33.58;29.01;99150.53;5070443;28;20675;-73
2022/08/11 14:04:43;;;;;;;4.53;3.40;;;;;;;33.60;29.01;99152.94;5069525;28;20640;-73
2022/08/11 14:07:14;;;;;;;3.60;3.35;;;;;;;33.49;29.11;99149.91;5066353;28;20196;-72
2022/08/11 14:09:45;;;;;;;4.05;3.20;;;;;;;33.35;29.20;99138.50;5069508;28;20202;-72
2022/08/11 14:15:07;;;;;;;3.33;3.10;;;;;;;33.30;30.63;99136.81;5070949;28;20184;-74
2022/08/11 14:17:35;;;;;;;3.15;2.95;;;;;;;33.39;30.78;99138.63;5070287;28;20184;-74
2022/08/11 14:20:07;;;;;;;3.40;3.10;;;;;;;33.41;29.97;99148.13;5070363;28;20229;-73
2022/08/11 14:22:34;;;;;;;2.80;2.60;;;;;;;33.24;30.28;99140.94;5070660;28;20185;-73
2022/08/11 14:25:03;;;;;;;2.90;2.80;;;;;;;33.15;30.62;99148.59;5070678;28;20196;-72
2022/08/11 14:27:30;;;;;;;3.20;3.00;;;;;;;33.08;30.34;99148.38;5069635;28;20204;-74
2022/08/11 14:29:58;;;;;;;3.33;3.13;;;;;;;33.04;29.94;99154.97;5073011;28;20624;-74
2022/08/11 14:32:26;;;;;;;3.07;2.87;;;;;;;32.82;30.10;99158.25;5056306;28;20257;-74
2022/08/11 14:34:53;;;;;;;3.92;2.88;;;;;;;32.75;31.09;99155.28;5072482;28;20196;-78
2022/08/11 14:37:22;;;;;;;3.13;2.93;;;;;;;32.66;31.12;99160.94;5073504;28;20196;-76
2022/08/11 14:39:53;;;;;;;3.03;2.80;;;;;;;32.60;31.30;99167.84;5074460;28;20192;-74
2022/08/11 14:48:00;;;;;;;2.90;2.73;;;;;;;32.41;31.30;99155.81;5074180;28;20310;-78
2022/08/11 14:50:29;;;;;;;2.87;2.77;;;;;;;32.42;31.47;99160.97;5073474;28;20547;-73
2022/08/11 14:52:59;;;;;;;3.67;2.63;;;;;;;32.30;31.79;99158.25;5074307;28;20244;-76
2022/08/11 14:58:18;;;;;;;3.13;2.83;;;;;;;32.41;31.13;99155.81;5074248;28;20230;-73
2022/08/11 15:00:45;;;;;;;2.90;2.70;;;;;;;32.43;31.22;99156.28;5072147;28;20275;-75
2022/08/11 15:03:13;;;;;;;3.60;3.27;;;;;;;32.33;31.83;99152.06;5073412;28;20707;-68
2022/08/11 15:05:44;;;;;;;3.50;2.80;;;;;;;31.72;31.76;99155.16;5073479;28;20196;-68
2022/08/11 15:08:13;;;;;;;4.60;2.67;;;;;;;31.91;31.96;99161.72;5075302;28;20242;-78
2022/08/11 15:10:40;;;;;;;4.60;2.40;;;;;;;31.95;31.39;99165.38;5074395;28;20196;-77
2022/08/11 15:13:09;;;;;;;2.10;2.00;;;;;;;31.84;30.36;99164.22;5074795;28;20325;-77
2022/08/11 15:18:23;;;;;;;2.27;2.07;;;;;;;31.89;30.62;99180.47;5073711;28;20175;-76
2022/08/11 15:37:25;;;;;;;3.70;1.90;;;;;;;31.89;30.95;99153.00;5073593;28;20241;-77
2022/08/11 15:37:37;;;;;;;4.00;2.10;;;;;;;31.79;31.28;99153.47;5073410;28;20234;-72
2022/08/11 15:45:50;;;;;;;5.00;4.70;;;;;;;31.14;31.99;99156.28;5073590;28;20180;-68
2022/08/11 15:48:27;;;;;;;5.70;5.30;;;;;;;31.21;32.24;99148.31;5072047;28;20643;-71
2022/08/11 15:50:57;;;;;;;12.93;11.40;;;;;;;31.01;32.79;99157.38;5072070;28;20627;-72
2022/08/11 15:53:30;;;;;;;28.83;24.40;;;;;;;31.07;32.26;99153.28;5070654;28;20192;-70
2022/08/11 15:55:59;;;;;;;3.73;3.53;;;;;;;30.97;32.45;99164.69;5072164;28;20249;-73
2022/08/11 16:04:14;;;;;;;3.17;2.93;;;;;;;30.74;33.19;99177.16;4996241;28;20262;-70
2022/08/11 16:06:45;;;;;;;2.63;2.43;;;;;;;30.65;32.65;99187.38;5071049;28;20495;-70
2022/08/11 16:09:14;;;;;;;3.47;3.13;;;;;;;30.61;32.87;99205.63;5070758;28;20184;-67
2022/08/11 16:11:43;;;;;;;6.07;3.90;;;;;;;30.52;32.41;99215.03;5072337;28;20195;-68
2022/08/11 16:16:58;;;;;;;8.27;4.20;;;;;;;29.82;42.83;99256.81;5072669;28;20335;-69
2022/08/11 16:19:34;;;;;;;5.57;4.57;;;;;;;29.34;44.46;99253.50;5071715;28;20632;-70
2022/08/11 16:22:03;;;;;;;7.70;4.03;;;;;;;29.26;48.28;99259.81;5072319;28;20191;-68
2022/08/11 16:24:31;;;;;;;7.50;3.53;;;;;;;28.87;46.50;99270.91;5071273;28;20255;-68
2022/08/11 16:27:00;;;;;;;20.30;4.93;;;;;;;28.87;51.72;99265.44;5071729;28;20253;-69
2022/08/11 16:29:30;;;;;;;21.83;4.90;;;;;;;28.06;61.95;99261.50;5072439;28;20249;-65
2022/08/11 16:40:18;;;;;;;5.47;4.10;;;;;;;25.55;74.92;99292.72;5071792;28;20203;-67
2022/08/11 16:48:34;;;;;;;6.67;6.00;;;;;;;24.50;84.92;99333.06;5010266;28;20205;-63
2022/08/11 16:51:02;;;;;;;5.87;5.57;;;;;;;24.35;87.10;99346.00;5008578;28;20194;-64